Aérodrome :
LOGIN :

S'inscrire | Disclaimer

   EN    FR    IT 

 










Légende :    VFR   VFR Marginal   IFR   IFR Intensif   IFR Très Intensif
Visi : 
Plafond : 
>= 8 km
>= 3000ft
5 à 8 km
1000 à 3000 ft
1500m à 5 km
500 à 1000 ft
800 à 1500m
200 à 500 ft
< 800m
< 200 ft
Symboles :   Orages  Brouillard  Fortes neiges  Fortes précipitations  Vent > 20 kt
SIGMETs :   Divers  Orages  Givrage  Turbulence  Onde Orograph.  Cendres Volcan.







- Altitude de l'aérodrome : 171 ft
- Code IATA : EGC
- Voir les cartes d'approche


LFBE - Bergerac

DERNIER METAR :
  • 230130Z AUTO 25003KT CAVOK 15/14 Q1018 TEMPO FEW050CB BKN060TCU

METARs EXPIRÉS :
  • 230100Z AUTO VRB02KT 9999 -RA NSC 16/14 Q1018 TEMPO FEW050CB BKN060TCU
  • 230030Z AUTO 29004KT 260V330 9999 -RA ///TCU 16/14 Q1018 TEMPO FEW050CB BKN060TCU
  • 230000Z AUTO 27006KT 9999 ///TCU 17/14 Q1018 TEMPO FEW050CB BKN060TCU
  • 222330Z AUTO 27008KT CAVOK 17/14 Q1018 TEMPO FEW050CB BKN060TCU
  • 222300Z AUTO 28004KT CAVOK 18/13 Q1017

TAF TAF LFBE
Valide du 23 à 00h jusqu'au 24 à 00h UTC


222300Z 2300/2324 28005KT CAVOK
PROB30
TEMPO 2300/2312 -SHRA FEW050CB BKN060TCU
TEMPO 2305/2308 BKN010
TEMPO 2308/2315 BKN015
Pas de NOTAMs connus pour ce terrain.



MET'MAP, la Météo Aéronautique d'un coup d'oeil ! - Copyright ORBIFLY Décembre 2007 - Disclaimer

ORBIFLY MET'MAP TEAM :

Programmation & Développement : Alexandra Zaïnal
Conception & Développement : Baudouin d'Aumeries
Co-Programmation & Développement : Marc-Olivier Méhu
Soutien technique & logistique : Manuel Goepfert

Contact : metmap@orbifly.com




SOURCES & CREDITS :

   NOAA